sensor_id;sensor_type;location;lat;lon;timestamp;P1;durP1;ratioP1;P2;durP2;ratioP2
42978;SDS011;28616;44.746;19.678;2023-05-10T00:00:51;6.32;;;5.63;;
42978;SDS011;28616;44.746;19.678;2023-05-10T00:03:16;5.78;;;5.28;;
42978;SDS011;28616;44.746;19.678;2023-05-10T00:05:42;8.43;;;5.05;;
42978;SDS011;28616;44.746;19.678;2023-05-10T00:08:08;5.45;;;5.00;;
42978;SDS011;28616;44.746;19.678;2023-05-10T00:10:34;6.47;;;5.88;;
42978;SDS011;28616;44.746;19.678;2023-05-10T00:13:02;7.13;;;5.35;;
42978;SDS011;28616;44.746;19.678;2023-05-10T00:15:28;4.93;;;4.53;;
42978;SDS011;28616;44.746;19.678;2023-05-10T00:17:55;7.00;;;5.72;;
42978;SDS011;28616;44.746;19.678;2023-05-10T00:20:21;7.00;;;6.22;;
42978;SDS011;28616;44.746;19.678;2023-05-10T00:22:47;5.90;;;5.35;;
42978;SDS011;28616;44.746;19.678;2023-05-10T00:25:13;6.53;;;5.78;;
42978;SDS011;28616;44.746;19.678;2023-05-10T00:27:39;6.63;;;5.97;;
42978;SDS011;28616;44.746;19.678;2023-05-10T00:30:05;6.32;;;5.72;;
42978;SDS011;28616;44.746;19.678;2023-05-10T00:32:31;10.93;;;5.97;;
42978;SDS011;28616;44.746;19.678;2023-05-10T00:34:57;5.88;;;5.38;;
42978;SDS011;28616;44.746;19.678;2023-05-10T00:37:23;13.05;;;7.35;;
42978;SDS011;28616;44.746;19.678;2023-05-10T00:39:49;10.75;;;6.63;;
42978;SDS011;28616;44.746;19.678;2023-05-10T00:42:15;9.40;;;6.85;;
42978;SDS011;28616;44.746;19.678;2023-05-10T00:44:41;8.63;;;6.32;;
42978;SDS011;28616;44.746;19.678;2023-05-10T00:47:06;6.43;;;5.35;;
42978;SDS011;28616;44.746;19.678;2023-05-10T00:49:33;8.77;;;4.90;;
42978;SDS011;28616;44.746;19.678;2023-05-10T00:51:59;6.93;;;5.07;;
42978;SDS011;28616;44.746;19.678;2023-05-10T00:54:26;7.90;;;5.68;;
42978;SDS011;28616;44.746;19.678;2023-05-10T00:56:52;5.53;;;4.72;;
42978;SDS011;28616;44.746;19.678;2023-05-10T00:59:18;6.18;;;5.13;;
42978;SDS011;28616;44.746;19.678;2023-05-10T01:01:45;6.38;;;4.63;;
42978;SDS011;28616;44.746;19.678;2023-05-10T01:04:11;5.07;;;4.65;;
42978;SDS011;28616;44.746;19.678;2023-05-10T01:06:42;5.55;;;5.05;;
42978;SDS011;28616;44.746;19.678;2023-05-10T01:09:08;8.05;;;4.88;;
42978;SDS011;28616;44.746;19.678;2023-05-10T01:11:34;8.05;;;5.13;;
42978;SDS011;28616;44.746;19.678;2023-05-10T01:14:01;10.00;;;5.63;;
42978;SDS011;28616;44.746;19.678;2023-05-10T01:16:28;5.68;;;5.03;;
42978;SDS011;28616;44.746;19.678;2023-05-10T01:19:00;9.32;;;5.80;;
42978;SDS011;28616;44.746;19.678;2023-05-10T01:21:40;7.72;;;5.93;;
42978;SDS011;28616;44.746;19.678;2023-05-10T01:32:15;8.32;;;4.95;;
42978;SDS011;28616;44.746;19.678;2023-05-10T01:34:59;8.60;;;4.80;;
42978;SDS011;28616;44.746;19.678;2023-05-10T01:37:31;5.65;;;4.38;;
42978;SDS011;28616;44.746;19.678;2023-05-10T01:43:01;6.43;;;5.00;;
42978;SDS011;28616;44.746;19.678;2023-05-10T01:45:33;6.10;;;4.40;;
42978;SDS011;28616;44.746;19.678;2023-05-10T01:48:21;9.20;;;5.22;;
42978;SDS011;28616;44.746;19.678;2023-05-10T01:50:49;5.05;;;4.55;;
42978;SDS011;28616;44.746;19.678;2023-05-10T01:53:17;6.22;;;4.47;;
42978;SDS011;28616;44.746;19.678;2023-05-10T01:55:49;5.03;;;4.50;;
42978;SDS011;28616;44.746;19.678;2023-05-10T01:58:21;6.35;;;4.93;;
42978;SDS011;28616;44.746;19.678;2023-05-10T02:00:52;6.32;;;4.90;;
42978;SDS011;28616;44.746;19.678;2023-05-10T02:03:20;7.55;;;4.70;;
42978;SDS011;28616;44.746;19.678;2023-05-10T02:05:49;6.72;;;4.50;;
42978;SDS011;28616;44.746;19.678;2023-05-10T02:08:17;5.60;;;4.50;;
42978;SDS011;28616;44.746;19.678;2023-05-10T02:10:45;4.47;;;4.00;;
42978;SDS011;28616;44.746;19.678;2023-05-10T02:13:12;4.88;;;4.43;;
42978;SDS011;28616;44.746;19.678;2023-05-10T02:15:40;4.78;;;4.00;;
42978;SDS011;28616;44.746;19.678;2023-05-10T02:18:07;4.97;;;4.30;;
42978;SDS011;28616;44.746;19.678;2023-05-10T02:20:35;5.30;;;4.13;;
42978;SDS011;28616;44.746;19.678;2023-05-10T02:23:02;4.88;;;4.32;;
42978;SDS011;28616;44.746;19.678;2023-05-10T02:25:29;4.43;;;4.03;;
42978;SDS011;28616;44.746;19.678;2023-05-10T02:27:57;4.50;;;4.05;;
42978;SDS011;28616;44.746;19.678;2023-05-10T02:30:26;4.47;;;4.03;;
42978;SDS011;28616;44.746;19.678;2023-05-10T02:32:53;5.35;;;3.90;;
42978;SDS011;28616;44.746;19.678;2023-05-10T02:35:21;5.28;;;4.20;;
42978;SDS011;28616;44.746;19.678;2023-05-10T02:37:48;5.47;;;4.45;;
42978;SDS011;28616;44.746;19.678;2023-05-10T02:40:15;6.45;;;4.93;;
42978;SDS011;28616;44.746;19.678;2023-05-10T02:42:43;4.65;;;4.25;;
42978;SDS011;28616;44.746;19.678;2023-05-10T02:45:11;5.10;;;3.88;;
42978;SDS011;28616;44.746;19.678;2023-05-10T02:47:39;4.10;;;3.70;;
42978;SDS011;28616;44.746;19.678;2023-05-10T02:50:05;4.13;;;3.72;;
42978;SDS011;28616;44.746;19.678;2023-05-10T02:55:35;5.78;;;4.13;;
42978;SDS011;28616;44.746;19.678;2023-05-10T02:58:03;4.38;;;3.97;;
42978;SDS011;28616;44.746;19.678;2023-05-10T03:00:29;5.10;;;3.70;;
42978;SDS011;28616;44.746;19.678;2023-05-10T03:02:55;4.30;;;3.90;;
42978;SDS011;28616;44.746;19.678;2023-05-10T03:05:21;6.88;;;4.35;;
42978;SDS011;28616;44.746;19.678;2023-05-10T03:07:47;8.35;;;4.25;;
42978;SDS011;28616;44.746;19.678;2023-05-10T03:10:14;5.88;;;3.97;;
42978;SDS011;28616;44.746;19.678;2023-05-10T03:15:42;6.10;;;4.88;;
42978;SDS011;28616;44.746;19.678;2023-05-10T03:18:37;5.05;;;4.40;;
42978;SDS011;28616;44.746;19.678;2023-05-10T03:21:19;5.53;;;3.92;;
42978;SDS011;28616;44.746;19.678;2023-05-10T03:23:50;5.53;;;3.97;;
42978;SDS011;28616;44.746;19.678;2023-05-10T03:26:23;7.40;;;3.92;;
42978;SDS011;28616;44.746;19.678;2023-05-10T03:28:51;4.65;;;4.20;;
42978;SDS011;28616;44.746;19.678;2023-05-10T03:31:18;5.53;;;4.30;;
42978;SDS011;28616;44.746;19.678;2023-05-10T03:33:48;6.93;;;4.32;;
42978;SDS011;28616;44.746;19.678;2023-05-10T03:36:14;4.60;;;3.35;;
42978;SDS011;28616;44.746;19.678;2023-05-10T03:38:40;5.97;;;4.53;;
42978;SDS011;28616;44.746;19.678;2023-05-10T03:41:06;6.35;;;4.25;;
42978;SDS011;28616;44.746;19.678;2023-05-10T03:43:31;5.43;;;4.00;;
42978;SDS011;28616;44.746;19.678;2023-05-10T03:45:57;4.45;;;3.58;;
42978;SDS011;28616;44.746;19.678;2023-05-10T03:48:23;4.25;;;3.45;;
42978;SDS011;28616;44.746;19.678;2023-05-10T03:50:49;6.25;;;3.90;;
42978;SDS011;28616;44.746;19.678;2023-05-10T03:53:15;8.80;;;3.75;;
42978;SDS011;28616;44.746;19.678;2023-05-10T03:55:41;6.78;;;4.13;;
42978;SDS011;28616;44.746;19.678;2023-05-10T03:58:06;6.93;;;4.70;;
42978;SDS011;28616;44.746;19.678;2023-05-10T04:00:35;6.85;;;4.50;;
42978;SDS011;28616;44.746;19.678;2023-05-10T04:03:02;6.22;;;4.10;;
42978;SDS011;28616;44.746;19.678;2023-05-10T04:05:28;7.45;;;4.43;;
42978;SDS011;28616;44.746;19.678;2023-05-10T04:07:54;5.32;;;4.25;;
42978;SDS011;28616;44.746;19.678;2023-05-10T04:10:20;5.03;;;3.85;;
42978;SDS011;28616;44.746;19.678;2023-05-10T04:12:46;4.40;;;3.72;;
42978;SDS011;28616;44.746;19.678;2023-05-10T04:15:12;4.45;;;4.05;;
42978;SDS011;28616;44.746;19.678;2023-05-10T04:17:37;7.40;;;4.15;;
42978;SDS011;28616;44.746;19.678;2023-05-10T04:20:03;5.90;;;3.95;;
42978;SDS011;28616;44.746;19.678;2023-05-10T04:22:30;8.40;;;4.63;;
42978;SDS011;28616;44.746;19.678;2023-05-10T04:24:57;6.55;;;3.75;;
42978;SDS011;28616;44.746;19.678;2023-05-10T04:27:22;9.85;;;4.30;;
42978;SDS011;28616;44.746;19.678;2023-05-10T04:29:48;4.50;;;3.70;;
42978;SDS011;28616;44.746;19.678;2023-05-10T04:32:14;5.60;;;4.20;;
42978;SDS011;28616;44.746;19.678;2023-05-10T04:34:41;6.40;;;4.55;;
42978;SDS011;28616;44.746;19.678;2023-05-10T04:37:07;6.53;;;4.20;;
42978;SDS011;28616;44.746;19.678;2023-05-10T04:39:32;7.47;;;4.43;;
42978;SDS011;28616;44.746;19.678;2023-05-10T04:41:58;3.83;;;3.38;;
42978;SDS011;28616;44.746;19.678;2023-05-10T04:44:24;4.53;;;3.63;;
42978;SDS011;28616;44.746;19.678;2023-05-10T04:46:49;4.93;;;3.17;;
42978;SDS011;28616;44.746;19.678;2023-05-10T04:49:15;8.80;;;3.55;;
42978;SDS011;28616;44.746;19.678;2023-05-10T04:51:41;5.22;;;3.50;;
42978;SDS011;28616;44.746;19.678;2023-05-10T04:54:07;3.28;;;2.97;;
42978;SDS011;28616;44.746;19.678;2023-05-10T04:56:33;4.63;;;3.55;;
42978;SDS011;28616;44.746;19.678;2023-05-10T04:58:59;4.40;;;3.45;;
42978;SDS011;28616;44.746;19.678;2023-05-10T05:01:24;4.63;;;3.75;;
42978;SDS011;28616;44.746;19.678;2023-05-10T05:03:50;3.75;;;3.35;;
42978;SDS011;28616;44.746;19.678;2023-05-10T05:06:17;4.05;;;3.38;;
42978;SDS011;28616;44.746;19.678;2023-05-10T05:08:43;4.15;;;3.85;;
42978;SDS011;28616;44.746;19.678;2023-05-10T05:11:09;5.18;;;4.05;;
42978;SDS011;28616;44.746;19.678;2023-05-10T05:13:35;3.85;;;3.38;;
42978;SDS011;28616;44.746;19.678;2023-05-10T05:16:01;4.88;;;3.42;;
42978;SDS011;28616;44.746;19.678;2023-05-10T05:18:27;3.80;;;3.50;;
42978;SDS011;28616;44.746;19.678;2023-05-10T05:20:53;4.35;;;3.95;;
42978;SDS011;28616;44.746;19.678;2023-05-10T05:23:19;8.40;;;3.90;;
42978;SDS011;28616;44.746;19.678;2023-05-10T05:25:46;5.82;;;4.50;;
42978;SDS011;28616;44.746;19.678;2023-05-10T05:28:11;4.40;;;4.00;;
42978;SDS011;28616;44.746;19.678;2023-05-10T05:30:37;4.93;;;4.20;;
42978;SDS011;28616;44.746;19.678;2023-05-10T05:33:03;5.72;;;4.30;;
42978;SDS011;28616;44.746;19.678;2023-05-10T05:35:29;5.38;;;4.45;;
42978;SDS011;28616;44.746;19.678;2023-05-10T05:37:54;4.47;;;4.07;;
42978;SDS011;28616;44.746;19.678;2023-05-10T05:40:20;4.38;;;4.07;;
42978;SDS011;28616;44.746;19.678;2023-05-10T05:42:46;5.15;;;4.15;;
42978;SDS011;28616;44.746;19.678;2023-05-10T05:45:12;4.20;;;3.90;;
42978;SDS011;28616;44.746;19.678;2023-05-10T05:47:38;4.88;;;4.30;;
42978;SDS011;28616;44.746;19.678;2023-05-10T05:50:05;5.35;;;4.65;;
42978;SDS011;28616;44.746;19.678;2023-05-10T05:52:31;4.22;;;3.92;;
42978;SDS011;28616;44.746;19.678;2023-05-10T05:54:57;5.43;;;4.93;;
42978;SDS011;28616;44.746;19.678;2023-05-10T05:57:22;5.20;;;4.70;;
42978;SDS011;28616;44.746;19.678;2023-05-10T05:59:48;4.70;;;4.30;;
42978;SDS011;28616;44.746;19.678;2023-05-10T06:02:14;4.28;;;3.97;;
42978;SDS011;28616;44.746;19.678;2023-05-10T06:04:40;3.97;;;3.67;;
42978;SDS011;28616;44.746;19.678;2023-05-10T06:07:05;3.78;;;3.53;;
42978;SDS011;28616;44.746;19.678;2023-05-10T06:09:31;4.20;;;3.90;;
42978;SDS011;28616;44.746;19.678;2023-05-10T06:11:57;4.05;;;3.75;;
42978;SDS011;28616;44.746;19.678;2023-05-10T06:14:23;5.65;;;4.38;;
42978;SDS011;28616;44.746;19.678;2023-05-10T06:16:48;3.90;;;3.60;;
42978;SDS011;28616;44.746;19.678;2023-05-10T06:19:14;3.88;;;3.58;;
42978;SDS011;28616;44.746;19.678;2023-05-10T06:21:40;4.10;;;3.80;;
42978;SDS011;28616;44.746;19.678;2023-05-10T06:24:06;3.97;;;3.67;;
42978;SDS011;28616;44.746;19.678;2023-05-10T06:26:32;4.70;;;4.30;;
42978;SDS011;28616;44.746;19.678;2023-05-10T06:32:15;4.43;;;4.10;;
42978;SDS011;28616;44.746;19.678;2023-05-10T06:34:40;4.90;;;4.50;;
42978;SDS011;28616;44.746;19.678;2023-05-10T06:37:08;4.38;;;4.05;;
42978;SDS011;28616;44.746;19.678;2023-05-10T06:39:34;4.97;;;4.57;;
42978;SDS011;28616;44.746;19.678;2023-05-10T06:41:59;4.57;;;4.18;;
42978;SDS011;28616;44.746;19.678;2023-05-10T06:44:29;5.10;;;4.70;;
42978;SDS011;28616;44.746;19.678;2023-05-10T06:46:55;4.78;;;4.47;;
42978;SDS011;28616;44.746;19.678;2023-05-10T06:49:21;5.05;;;4.65;;
42978;SDS011;28616;44.746;19.678;2023-05-10T06:51:47;4.50;;;4.20;;
42978;SDS011;28616;44.746;19.678;2023-05-10T06:57:53;4.82;;;4.53;;
42978;SDS011;28616;44.746;19.678;2023-05-10T07:00:19;5.47;;;5.07;;
42978;SDS011;28616;44.746;19.678;2023-05-10T07:02:45;5.70;;;5.30;;
42978;SDS011;28616;44.746;19.678;2023-05-10T07:05:12;5.65;;;5.15;;
42978;SDS011;28616;44.746;19.678;2023-05-10T07:07:39;4.95;;;4.45;;
42978;SDS011;28616;44.746;19.678;2023-05-10T07:10:05;4.18;;;3.80;;
42978;SDS011;28616;44.746;19.678;2023-05-10T07:12:32;4.43;;;4.03;;
42978;SDS011;28616;44.746;19.678;2023-05-10T07:14:57;3.88;;;3.58;;
42978;SDS011;28616;44.746;19.678;2023-05-10T07:17:23;4.30;;;4.00;;
42978;SDS011;28616;44.746;19.678;2023-05-10T07:19:49;5.72;;;4.40;;
42978;SDS011;28616;44.746;19.678;2023-05-10T07:22:15;5.32;;;4.88;;
42978;SDS011;28616;44.746;19.678;2023-05-10T07:24:41;6.05;;;5.00;;
42978;SDS011;28616;44.746;19.678;2023-05-10T07:27:08;5.20;;;4.50;;
42978;SDS011;28616;44.746;19.678;2023-05-10T07:29:34;4.90;;;4.50;;
42978;SDS011;28616;44.746;19.678;2023-05-10T07:32:00;4.97;;;4.50;;
42978;SDS011;28616;44.746;19.678;2023-05-10T07:34:26;5.65;;;4.90;;
42978;SDS011;28616;44.746;19.678;2023-05-10T07:36:52;6.70;;;5.15;;
42978;SDS011;28616;44.746;19.678;2023-05-10T07:39:18;5.60;;;5.20;;
42978;SDS011;28616;44.746;19.678;2023-05-10T07:41:45;4.85;;;4.45;;
42978;SDS011;28616;44.746;19.678;2023-05-10T07:44:11;6.65;;;6.13;;
42978;SDS011;28616;44.746;19.678;2023-05-10T07:46:37;5.75;;;5.10;;
42978;SDS011;28616;44.746;19.678;2023-05-10T07:49:03;6.32;;;5.72;;
42978;SDS011;28616;44.746;19.678;2023-05-10T07:51:29;6.70;;;6.10;;
42978;SDS011;28616;44.746;19.678;2023-05-10T07:53:55;6.50;;;6.00;;
42978;SDS011;28616;44.746;19.678;2023-05-10T07:58:54;6.30;;;5.70;;
42978;SDS011;28616;44.746;19.678;2023-05-10T08:01:21;5.88;;;5.30;;
42978;SDS011;28616;44.746;19.678;2023-05-10T08:03:47;5.60;;;5.20;;
42978;SDS011;28616;44.746;19.678;2023-05-10T08:06:14;4.57;;;4.25;;
42978;SDS011;28616;44.746;19.678;2023-05-10T08:08:40;6.85;;;6.35;;
42978;SDS011;28616;44.746;19.678;2023-05-10T08:11:06;6.40;;;5.80;;
42978;SDS011;28616;44.746;19.678;2023-05-10T08:13:32;5.80;;;5.25;;
42978;SDS011;28616;44.746;19.678;2023-05-10T08:15:58;5.20;;;4.80;;
42978;SDS011;28616;44.746;19.678;2023-05-10T08:18:24;6.30;;;5.32;;
42978;SDS011;28616;44.746;19.678;2023-05-10T08:20:50;6.50;;;6.00;;
42978;SDS011;28616;44.746;19.678;2023-05-10T08:23:15;6.47;;;5.82;;
42978;SDS011;28616;44.746;19.678;2023-05-10T08:25:41;6.75;;;6.15;;
42978;SDS011;28616;44.746;19.678;2023-05-10T08:28:07;5.60;;;5.20;;
42978;SDS011;28616;44.746;19.678;2023-05-10T08:30:33;5.20;;;4.80;;
42978;SDS011;28616;44.746;19.678;2023-05-10T08:32:58;6.32;;;5.75;;
42978;SDS011;28616;44.746;19.678;2023-05-10T08:35:24;5.50;;;5.10;;
42978;SDS011;28616;44.746;19.678;2023-05-10T08:37:50;6.72;;;6.13;;
42978;SDS011;28616;44.746;19.678;2023-05-10T08:40:16;9.32;;;6.93;;
42978;SDS011;28616;44.746;19.678;2023-05-10T08:42:49;5.90;;;5.50;;
42978;SDS011;28616;44.746;19.678;2023-05-10T08:45:21;5.10;;;4.80;;
42978;SDS011;28616;44.746;19.678;2023-05-10T08:47:48;4.90;;;4.50;;
42978;SDS011;28616;44.746;19.678;2023-05-10T08:50:16;5.15;;;4.78;;
42978;SDS011;28616;44.746;19.678;2023-05-10T08:52:45;5.55;;;5.18;;
42978;SDS011;28616;44.746;19.678;2023-05-10T08:55:13;5.93;;;5.43;;
42978;SDS011;28616;44.746;19.678;2023-05-10T08:57:40;5.40;;;5.00;;
42978;SDS011;28616;44.746;19.678;2023-05-10T09:00:06;5.90;;;5.60;;
42978;SDS011;28616;44.746;19.678;2023-05-10T09:02:33;5.60;;;5.25;;
42978;SDS011;28616;44.746;19.678;2023-05-10T09:05:00;5.60;;;5.20;;
42978;SDS011;28616;44.746;19.678;2023-05-10T09:07:26;5.72;;;5.22;;
42978;SDS011;28616;44.746;19.678;2023-05-10T09:09:52;6.00;;;5.55;;
42978;SDS011;28616;44.746;19.678;2023-05-10T09:12:19;9.43;;;8.55;;
42978;SDS011;28616;44.746;19.678;2023-05-10T09:14:45;8.40;;;7.80;;
42978;SDS011;28616;44.746;19.678;2023-05-10T09:17:11;8.30;;;6.63;;
42978;SDS011;28616;44.746;19.678;2023-05-10T09:19:37;6.30;;;5.70;;
42978;SDS011;28616;44.746;19.678;2023-05-10T09:22:03;8.35;;;7.43;;
42978;SDS011;28616;44.746;19.678;2023-05-10T09:24:29;5.18;;;4.78;;
42978;SDS011;28616;44.746;19.678;2023-05-10T09:26:56;6.40;;;5.93;;
42978;SDS011;28616;44.746;19.678;2023-05-10T09:29:23;6.20;;;5.70;;
42978;SDS011;28616;44.746;19.678;2023-05-10T09:31:50;5.85;;;5.45;;
42978;SDS011;28616;44.746;19.678;2023-05-10T09:34:22;5.65;;;5.25;;
42978;SDS011;28616;44.746;19.678;2023-05-10T09:36:55;6.28;;;5.80;;
42978;SDS011;28616;44.746;19.678;2023-05-10T09:39:33;6.00;;;5.60;;
42978;SDS011;28616;44.746;19.678;2023-05-10T09:42:07;6.57;;;5.20;;
42978;SDS011;28616;44.746;19.678;2023-05-10T09:44:34;5.13;;;4.80;;
42978;SDS011;28616;44.746;19.678;2023-05-10T09:47:01;12.00;;;6.03;;
42978;SDS011;28616;44.746;19.678;2023-05-10T09:49:27;5.95;;;5.55;;
42978;SDS011;28616;44.746;19.678;2023-05-10T09:52:06;6.20;;;5.80;;
42978;SDS011;28616;44.746;19.678;2023-05-10T09:54:33;5.55;;;5.22;;
42978;SDS011;28616;44.746;19.678;2023-05-10T09:56:59;6.00;;;5.60;;
42978;SDS011;28616;44.746;19.678;2023-05-10T09:59:26;7.13;;;6.63;;
42978;SDS011;28616;44.746;19.678;2023-05-10T10:01:55;6.90;;;6.30;;
42978;SDS011;28616;44.746;19.678;2023-05-10T10:04:22;5.05;;;4.70;;
42978;SDS011;28616;44.746;19.678;2023-05-10T10:06:58;5.03;;;4.72;;
42978;SDS011;28616;44.746;19.678;2023-05-10T10:09:25;5.60;;;5.20;;
42978;SDS011;28616;44.746;19.678;2023-05-10T10:11:52;5.40;;;5.00;;
42978;SDS011;28616;44.746;19.678;2023-05-10T10:14:19;6.07;;;5.60;;
42978;SDS011;28616;44.746;19.678;2023-05-10T10:16:46;6.03;;;5.57;;
42978;SDS011;28616;44.746;19.678;2023-05-10T10:19:13;5.97;;;5.35;;
42978;SDS011;28616;44.746;19.678;2023-05-10T10:21:40;6.00;;;5.50;;
42978;SDS011;28616;44.746;19.678;2023-05-10T10:24:06;5.90;;;5.40;;
42978;SDS011;28616;44.746;19.678;2023-05-10T10:26:34;5.80;;;5.35;;
42978;SDS011;28616;44.746;19.678;2023-05-10T10:29:23;6.30;;;4.85;;
42978;SDS011;28616;44.746;19.678;2023-05-10T10:32:27;6.28;;;5.82;;
42978;SDS011;28616;44.746;19.678;2023-05-10T10:35:03;12.25;;;7.00;;
42978;SDS011;28616;44.746;19.678;2023-05-10T10:37:45;5.80;;;5.40;;
42978;SDS011;28616;44.746;19.678;2023-05-10T10:40:24;6.53;;;6.03;;
42978;SDS011;28616;44.746;19.678;2023-05-10T10:42:55;5.78;;;5.38;;
42978;SDS011;28616;44.746;19.678;2023-05-10T10:45:21;5.75;;;5.35;;
42978;SDS011;28616;44.746;19.678;2023-05-10T10:47:48;6.53;;;6.00;;
42978;SDS011;28616;44.746;19.678;2023-05-10T10:50:18;7.00;;;6.50;;
42978;SDS011;28616;44.746;19.678;2023-05-10T10:52:44;6.30;;;5.90;;
42978;SDS011;28616;44.746;19.678;2023-05-10T10:55:19;5.55;;;5.25;;
42978;SDS011;28616;44.746;19.678;2023-05-10T10:57:51;6.18;;;5.78;;
42978;SDS011;28616;44.746;19.678;2023-05-10T11:03:14;6.60;;;6.20;;
42978;SDS011;28616;44.746;19.678;2023-05-10T11:05:47;7.03;;;6.50;;
42978;SDS011;28616;44.746;19.678;2023-05-10T11:11:04;5.80;;;5.32;;
42978;SDS011;28616;44.746;19.678;2023-05-10T11:13:41;6.50;;;6.03;;
42978;SDS011;28616;44.746;19.678;2023-05-10T11:19:18;5.05;;;4.75;;
42978;SDS011;28616;44.746;19.678;2023-05-10T11:24:15;6.68;;;6.18;;
42978;SDS011;28616;44.746;19.678;2023-05-10T11:26:46;6.20;;;5.70;;
42978;SDS011;28616;44.746;19.678;2023-05-10T11:29:15;6.10;;;5.70;;
42978;SDS011;28616;44.746;19.678;2023-05-10T11:31:42;6.82;;;6.32;;
42978;SDS011;28616;44.746;19.678;2023-05-10T11:34:10;5.93;;;5.45;;
42978;SDS011;28616;44.746;19.678;2023-05-10T11:36:36;5.80;;;5.40;;
42978;SDS011;28616;44.746;19.678;2023-05-10T11:39:02;7.78;;;7.22;;
42978;SDS011;28616;44.746;19.678;2023-05-10T11:41:30;6.93;;;6.43;;
42978;SDS011;28616;44.746;19.678;2023-05-10T11:43:56;6.40;;;6.00;;
42978;SDS011;28616;44.746;19.678;2023-05-10T11:46:23;6.20;;;5.80;;
42978;SDS011;28616;44.746;19.678;2023-05-10T11:48:50;5.53;;;5.13;;
42978;SDS011;28616;44.746;19.678;2023-05-10T11:51:21;6.60;;;6.20;;
42978;SDS011;28616;44.746;19.678;2023-05-10T11:53:48;7.07;;;6.47;;
42978;SDS011;28616;44.746;19.678;2023-05-10T11:56:15;6.93;;;6.53;;
42978;SDS011;28616;44.746;19.678;2023-05-10T11:58:41;6.57;;;6.18;;
42978;SDS011;28616;44.746;19.678;2023-05-10T12:01:07;5.85;;;5.45;;
42978;SDS011;28616;44.746;19.678;2023-05-10T12:03:34;7.30;;;6.80;;
42978;SDS011;28616;44.746;19.678;2023-05-10T12:06:01;6.82;;;6.32;;
42978;SDS011;28616;44.746;19.678;2023-05-10T12:08:28;6.78;;;6.28;;
42978;SDS011;28616;44.746;19.678;2023-05-10T12:11:05;6.80;;;6.32;;
42978;SDS011;28616;44.746;19.678;2023-05-10T12:13:32;6.50;;;6.10;;
42978;SDS011;28616;44.746;19.678;2023-05-10T12:15:58;6.03;;;5.63;;
42978;SDS011;28616;44.746;19.678;2023-05-10T12:18:25;6.90;;;6.40;;
42978;SDS011;28616;44.746;19.678;2023-05-10T12:20:52;6.43;;;6.00;;
42978;SDS011;28616;44.746;19.678;2023-05-10T12:23:21;5.50;;;5.10;;
42978;SDS011;28616;44.746;19.678;2023-05-10T12:25:47;6.70;;;6.25;;
42978;SDS011;28616;44.746;19.678;2023-05-10T12:28:13;6.80;;;6.30;;
42978;SDS011;28616;44.746;19.678;2023-05-10T12:30:40;6.25;;;5.75;;
42978;SDS011;28616;44.746;19.678;2023-05-10T12:33:12;6.65;;;6.18;;
42978;SDS011;28616;44.746;19.678;2023-05-10T12:38:34;6.30;;;5.90;;
42978;SDS011;28616;44.746;19.678;2023-05-10T12:41:03;6.15;;;5.63;;
42978;SDS011;28616;44.746;19.678;2023-05-10T12:43:30;6.13;;;5.63;;
42978;SDS011;28616;44.746;19.678;2023-05-10T12:45:56;6.10;;;5.70;;
42978;SDS011;28616;44.746;19.678;2023-05-10T12:48:22;6.95;;;6.47;;
42978;SDS011;28616;44.746;19.678;2023-05-10T12:50:48;6.47;;;5.97;;
42978;SDS011;28616;44.746;19.678;2023-05-10T12:53:15;7.10;;;6.50;;
42978;SDS011;28616;44.746;19.678;2023-05-10T12:55:44;6.72;;;6.32;;
42978;SDS011;28616;44.746;19.678;2023-05-10T12:58:11;6.38;;;5.97;;
42978;SDS011;28616;44.746;19.678;2023-05-10T13:00:37;6.57;;;6.07;;
42978;SDS011;28616;44.746;19.678;2023-05-10T13:03:06;6.78;;;6.38;;
42978;SDS011;28616;44.746;19.678;2023-05-10T13:05:32;6.30;;;5.90;;
42978;SDS011;28616;44.746;19.678;2023-05-10T13:07:58;6.70;;;6.30;;
42978;SDS011;28616;44.746;19.678;2023-05-10T13:10:25;8.35;;;7.85;;
42978;SDS011;28616;44.746;19.678;2023-05-10T13:12:51;7.30;;;6.80;;
42978;SDS011;28616;44.746;19.678;2023-05-10T13:15:17;7.35;;;6.85;;
42978;SDS011;28616;44.746;19.678;2023-05-10T13:17:43;7.00;;;6.50;;
42978;SDS011;28616;44.746;19.678;2023-05-10T13:20:10;6.45;;;5.95;;
42978;SDS011;28616;44.746;19.678;2023-05-10T13:22:36;7.50;;;7.00;;
42978;SDS011;28616;44.746;19.678;2023-05-10T13:25:02;7.10;;;6.70;;
42978;SDS011;28616;44.746;19.678;2023-05-10T13:27:29;6.95;;;6.55;;
42978;SDS011;28616;44.746;19.678;2023-05-10T13:29:55;7.00;;;6.60;;
42978;SDS011;28616;44.746;19.678;2023-05-10T13:32:21;7.60;;;7.13;;
42978;SDS011;28616;44.746;19.678;2023-05-10T13:34:47;7.35;;;6.78;;
42978;SDS011;28616;44.746;19.678;2023-05-10T13:37:13;7.10;;;6.60;;
42978;SDS011;28616;44.746;19.678;2023-05-10T13:39:39;7.60;;;7.10;;
42978;SDS011;28616;44.746;19.678;2023-05-10T13:42:06;7.00;;;6.53;;
42978;SDS011;28616;44.746;19.678;2023-05-10T13:44:32;6.40;;;6.00;;
42978;SDS011;28616;44.746;19.678;2023-05-10T13:46:58;6.47;;;5.97;;
42978;SDS011;28616;44.746;19.678;2023-05-10T13:49:25;6.80;;;6.30;;
42978;SDS011;28616;44.746;19.678;2023-05-10T13:51:51;5.88;;;5.47;;
42978;SDS011;28616;44.746;19.678;2023-05-10T13:54:17;6.28;;;5.88;;
42978;SDS011;28616;44.746;19.678;2023-05-10T13:56:45;6.93;;;6.47;;
42978;SDS011;28616;44.746;19.678;2023-05-10T13:59:12;5.60;;;5.30;;
42978;SDS011;28616;44.746;19.678;2023-05-10T14:01:39;6.45;;;5.95;;
42978;SDS011;28616;44.746;19.678;2023-05-10T14:04:05;8.65;;;5.70;;
42978;SDS011;28616;44.746;19.678;2023-05-10T14:06:33;5.60;;;5.03;;
42978;SDS011;28616;44.746;19.678;2023-05-10T14:09:00;5.00;;;4.60;;
42978;SDS011;28616;44.746;19.678;2023-05-10T14:11:26;5.15;;;4.40;;
42978;SDS011;28616;44.746;19.678;2023-05-10T14:13:52;5.70;;;5.38;;
42978;SDS011;28616;44.746;19.678;2023-05-10T14:16:18;5.43;;;5.03;;
42978;SDS011;28616;44.746;19.678;2023-05-10T14:18:45;5.10;;;4.70;;
42978;SDS011;28616;44.746;19.678;2023-05-10T14:21:11;4.75;;;4.35;;
42978;SDS011;28616;44.746;19.678;2023-05-10T14:23:37;5.57;;;5.20;;
42978;SDS011;28616;44.746;19.678;2023-05-10T14:26:03;5.80;;;5.40;;
42978;SDS011;28616;44.746;19.678;2023-05-10T14:28:30;5.70;;;5.30;;
42978;SDS011;28616;44.746;19.678;2023-05-10T14:30:55;5.45;;;4.93;;
42978;SDS011;28616;44.746;19.678;2023-05-10T14:33:21;5.10;;;4.80;;
42978;SDS011;28616;44.746;19.678;2023-05-10T14:35:47;5.20;;;4.80;;
42978;SDS011;28616;44.746;19.678;2023-05-10T14:38:13;4.90;;;4.50;;
42978;SDS011;28616;44.746;19.678;2023-05-10T14:40:39;5.15;;;4.85;;
42978;SDS011;28616;44.746;19.678;2023-05-10T14:43:05;6.40;;;5.90;;
42978;SDS011;28616;44.746;19.678;2023-05-10T14:45:31;6.00;;;4.70;;
42978;SDS011;28616;44.746;19.678;2023-05-10T14:47:57;7.03;;;6.00;;
42978;SDS011;28616;44.746;19.678;2023-05-10T14:50:24;5.07;;;4.72;;
42978;SDS011;28616;44.746;19.678;2023-05-10T14:52:50;4.93;;;4.63;;
42978;SDS011;28616;44.746;19.678;2023-05-10T14:55:16;4.93;;;4.55;;
42978;SDS011;28616;44.746;19.678;2023-05-10T14:57:42;4.68;;;4.38;;
42978;SDS011;28616;44.746;19.678;2023-05-10T15:00:09;5.10;;;4.70;;
42978;SDS011;28616;44.746;19.678;2023-05-10T15:02:35;5.95;;;4.50;;
42978;SDS011;28616;44.746;19.678;2023-05-10T15:05:01;5.38;;;4.88;;
42978;SDS011;28616;44.746;19.678;2023-05-10T15:07:27;5.28;;;4.80;;
42978;SDS011;28616;44.746;19.678;2023-05-10T15:09:53;5.72;;;5.22;;
42978;SDS011;28616;44.746;19.678;2023-05-10T15:12:19;6.00;;;5.60;;
42978;SDS011;28616;44.746;19.678;2023-05-10T15:14:45;6.07;;;5.68;;